createdAt,value
2019-01-08T00:02:19.664Z,85.40
2019-01-08T00:05:12.242Z,85.20
2019-01-08T00:08:05.938Z,85.20
2019-01-08T00:11:00.785Z,85.20
2019-01-08T00:13:54.588Z,85.20
2019-01-08T00:16:47.290Z,85.40
2019-01-08T00:19:39.970Z,85.80
2019-01-08T00:22:32.766Z,85.30
2019-01-08T00:25:28.605Z,85.30
2019-01-08T00:28:22.406Z,85.30
2019-01-08T01:36:06.267Z,84.50
2019-01-08T01:38:58.581Z,85.30
2019-01-08T01:41:52.082Z,85.60
2019-01-08T01:44:44.812Z,85.50
2019-01-08T01:47:37.832Z,85.20
2019-01-08T01:50:37.033Z,85.30
2019-01-08T01:53:37.022Z,85.30
2019-01-08T01:56:33.290Z,85.30
2019-01-08T01:59:28.873Z,85.50
2019-01-08T02:02:31.892Z,85.70
2019-01-08T02:05:26.861Z,85.60
2019-01-08T02:08:19.615Z,85.80
2019-01-08T02:11:32.221Z,86.00
2019-01-08T02:14:30.124Z,86.10
2019-01-08T02:17:46.870Z,86.30
2019-01-08T02:20:58.980Z,86.50
2019-01-08T02:24:18.931Z,86.40
2019-01-08T02:27:32.661Z,86.40
2019-01-08T02:30:25.194Z,86.50
2019-01-08T02:33:17.343Z,86.50
2019-01-08T02:36:11.320Z,86.50
2019-01-08T02:39:04.188Z,86.50
2019-01-08T02:41:57.407Z,86.60
2019-01-08T02:44:50.126Z,86.50
2019-01-08T02:47:43.855Z,86.60
2019-01-08T02:50:38.242Z,86.70
2019-01-08T02:53:32.009Z,86.80
2019-01-08T02:56:26.296Z,86.60
2019-01-08T02:59:25.033Z,86.60
2019-01-08T03:02:13.616Z,87.20
2019-01-08T03:05:05.715Z,86.70
2019-01-08T03:07:58.231Z,86.70
2019-01-08T03:10:51.470Z,86.60
2019-01-08T03:13:44.482Z,86.60
2019-01-08T03:16:38.273Z,86.70
2019-01-08T03:19:30.702Z,86.30
2019-01-08T03:22:23.564Z,86.10
2019-01-08T03:25:17.839Z,86.20
2019-01-08T03:28:10.401Z,86.30
2019-01-08T03:31:03.002Z,86.10
2019-01-08T03:33:55.348Z,86.30
2019-01-08T03:36:49.409Z,86.40
2019-01-08T03:39:41.917Z,86.20
2019-01-08T03:42:42.590Z,86.10
2019-01-08T03:45:38.364Z,86.50
2019-01-08T03:48:39.643Z,86.20
2019-01-08T03:51:32.211Z,86.20
2019-01-08T03:54:25.435Z,86.60
2019-01-08T03:57:18.818Z,86.50
2019-01-08T04:00:12.037Z,86.90
2019-01-08T04:03:04.578Z,86.80
2019-01-08T04:05:57.017Z,86.70
2019-01-08T04:08:49.870Z,86.60
2019-01-08T04:11:51.352Z,86.10
2019-01-08T04:14:45.382Z,85.70
2019-01-08T04:17:37.826Z,86.30
2019-01-08T04:20:30.458Z,86.00
2019-01-08T04:23:23.124Z,85.90
2019-01-08T04:26:24.242Z,85.80
2019-01-08T04:29:17.098Z,85.80
2019-01-08T04:32:09.424Z,85.80
2019-01-08T04:35:01.520Z,85.80
2019-01-08T04:37:54.209Z,86.00
2019-01-08T04:40:47.166Z,85.90
2019-01-08T04:43:39.885Z,85.80
2019-01-08T04:46:55.926Z,85.00
2019-01-08T04:49:49.348Z,84.90
2019-01-08T04:52:42.059Z,85.00
2019-01-08T04:55:34.678Z,84.10
2019-01-08T04:58:26.497Z,84.10
2019-01-08T05:01:19.376Z,84.10
2019-01-08T05:04:13.072Z,84.00
2019-01-08T05:07:05.410Z,83.80
2019-01-08T05:09:57.763Z,84.10
2019-01-08T05:12:50.290Z,84.30
2019-01-08T05:15:43.805Z,84.20
2019-01-08T05:18:36.043Z,84.70
2019-01-08T05:21:45.554Z,84.30
2019-01-08T05:24:31.824Z,84.30
2019-01-08T05:27:23.928Z,84.50
2019-01-08T05:30:16.502Z,84.20
2019-01-08T05:33:09.216Z,84.10
2019-01-08T05:36:01.740Z,84.20
2019-01-08T05:38:55.162Z,85.30
2019-01-08T05:41:49.227Z,84.30
2019-01-08T05:44:41.685Z,84.70
2019-01-08T05:47:41.838Z,83.50
2019-01-08T05:50:33.273Z,83.40
2019-01-08T05:53:26.594Z,82.90
2019-01-08T05:56:26.665Z,82.30
2019-01-08T05:59:18.839Z,82.80
2019-01-08T06:02:31.313Z,83.00
2019-01-08T06:05:25.631Z,82.80
2019-01-08T06:08:18.368Z,82.60
2019-01-08T06:11:11.374Z,82.40
2019-01-08T06:14:04.710Z,81.60
2019-01-08T06:16:58.501Z,81.40
2019-01-08T06:19:51.406Z,81.40
2019-01-08T06:22:44.017Z,81.60
2019-01-08T06:25:46.600Z,81.50
2019-01-08T06:28:52.545Z,81.90
2019-01-08T06:31:44.374Z,81.50
2019-01-08T06:34:36.377Z,81.20
2019-01-08T06:41:08.312Z,81.10
2019-01-08T06:44:01.694Z,81.70
2019-01-08T06:46:54.634Z,81.60
2019-01-08T06:49:46.780Z,81.30
2019-01-08T06:52:41.534Z,81.50
2019-01-08T06:55:34.262Z,81.20
2019-01-08T06:58:27.560Z,81.40
2019-01-08T07:01:20.106Z,81.10
2019-01-08T07:04:12.728Z,80.70
2019-01-08T07:07:05.328Z,80.90
2019-01-08T07:09:57.711Z,81.10
2019-01-08T07:12:51.247Z,80.20
2019-01-08T07:15:45.928Z,80.40
2019-01-08T07:18:39.460Z,80.10
2019-01-08T07:21:32.178Z,80.30
2019-01-08T07:24:24.500Z,79.90
2019-01-08T07:27:18.651Z,79.70
2019-01-08T07:30:17.109Z,79.90
2019-01-08T07:33:13.854Z,79.50
2019-01-08T07:36:33.858Z,80.00
2019-01-08T07:39:27.370Z,79.60
2019-01-08T07:42:20.577Z,79.60
2019-01-08T07:45:13.859Z,79.50
2019-01-08T07:48:06.541Z,79.60
2019-01-08T07:50:59.293Z,79.50
2019-01-08T07:53:52.185Z,79.80
2019-01-08T07:56:46.160Z,80.00
2019-01-08T07:59:38.137Z,80.00
2019-01-08T08:02:35.593Z,79.70
2019-01-08T08:05:29.779Z,79.50
2019-01-08T08:08:23.153Z,80.00
2019-01-08T08:11:15.519Z,80.00
2019-01-08T08:14:08.493Z,81.10
2019-01-08T08:17:02.462Z,80.20
2019-01-08T08:19:56.397Z,80.50
2019-01-08T08:22:57.205Z,79.80
2019-01-08T08:25:52.648Z,79.30
2019-01-08T08:28:45.204Z,79.40
2019-01-08T08:31:37.902Z,78.80
2019-01-08T08:34:56.823Z,79.30
2019-01-08T08:38:08.527Z,79.10
2019-01-08T08:41:27.051Z,78.90
2019-01-08T08:44:21.962Z,79.40
2019-01-08T08:47:14.990Z,79.30
2019-01-08T08:50:07.885Z,79.50
2019-01-08T08:53:00.766Z,79.50
2019-01-08T08:55:53.194Z,79.30
2019-01-08T08:58:45.807Z,79.60
2019-01-08T09:01:39.436Z,79.00
2019-01-08T09:04:32.951Z,79.30
2019-01-08T09:07:28.427Z,79.40
2019-01-08T09:10:21.458Z,82.40
2019-01-08T09:13:14.697Z,79.40
2019-01-08T09:16:07.328Z,78.80
2019-01-08T09:19:02.424Z,78.80
2019-01-08T09:21:56.959Z,79.00
2019-01-08T09:24:49.689Z,79.20
2019-01-08T09:27:41.969Z,79.70
2019-01-08T09:30:35.515Z,79.40
2019-01-08T09:33:28.168Z,79.50
2019-01-08T09:36:21.747Z,79.50
2019-01-08T09:39:16.566Z,79.50
2019-01-08T09:42:09.626Z,79.30
2019-01-08T09:45:02.722Z,79.40
2019-01-08T09:47:56.445Z,79.40
2019-01-08T09:50:49.862Z,79.40
2019-01-08T09:53:44.964Z,79.40
2019-01-08T09:56:40.876Z,78.90
2019-01-08T09:59:35.478Z,78.70
2019-01-08T10:02:31.094Z,78.80
2019-01-08T10:05:25.396Z,78.80
2019-01-08T10:08:17.829Z,78.90
2019-01-08T10:11:17.431Z,78.80
2019-01-08T10:14:09.205Z,78.90
2019-01-08T10:17:02.061Z,78.80
2019-01-08T10:19:55.115Z,78.90
2019-01-08T10:22:48.820Z,78.80
2019-01-08T10:25:41.368Z,78.90
2019-01-08T10:28:34.434Z,78.90
2019-01-08T10:31:32.332Z,78.90
2019-01-08T10:34:21.007Z,78.80
2019-01-08T10:37:13.593Z,78.70
2019-01-08T10:40:09.911Z,78.70
2019-01-08T10:43:03.709Z,78.50
2019-01-08T10:45:56.521Z,78.30
2019-01-08T10:49:03.461Z,78.30
2019-01-08T10:51:56.941Z,78.30
2019-01-08T10:54:49.508Z,78.20
2019-01-08T10:57:42.632Z,78.30
2019-01-08T11:00:35.356Z,78.40
2019-01-08T11:03:28.376Z,78.40
2019-01-08T11:06:21.408Z,78.40
2019-01-08T11:09:13.808Z,78.50
2019-01-08T11:12:06.096Z,78.60
2019-01-08T11:14:58.361Z,78.80
2019-01-08T11:17:51.078Z,78.80
2019-01-08T11:20:44.101Z,78.90
2019-01-08T11:23:38.090Z,78.90
2019-01-08T11:26:30.903Z,78.90
2019-01-08T11:29:25.333Z,79.00
2019-01-08T11:32:18.931Z,78.90
2019-01-08T11:35:11.514Z,78.90
2019-01-08T11:38:04.708Z,79.00
2019-01-08T11:40:57.550Z,79.00
2019-01-08T11:43:50.673Z,79.10
2019-01-08T11:46:46.882Z,79.10
2019-01-08T11:49:40.863Z,79.10
2019-01-08T11:52:33.795Z,79.40
2019-01-08T11:55:26.849Z,79.60
2019-01-08T11:58:19.519Z,79.80
2019-01-08T13:06:36.508Z,81.10
2019-01-08T13:09:29.046Z,81.70
2019-01-08T13:12:22.276Z,81.70
2019-01-08T13:15:14.917Z,81.70
2019-01-08T13:18:09.096Z,81.60
2019-01-08T13:21:01.554Z,81.60
2019-01-08T13:23:54.506Z,82.50
2019-01-08T13:26:47.981Z,81.50
2019-01-08T13:29:40.782Z,81.80
2019-01-08T13:32:33.281Z,81.80
2019-01-08T13:35:25.881Z,81.80
2019-01-08T13:38:18.408Z,82.20
2019-01-08T13:41:11.143Z,82.40
2019-01-08T13:44:14.721Z,83.00
2019-01-08T13:47:08.313Z,82.70
2019-01-08T13:50:00.292Z,83.00
2019-01-08T13:52:52.243Z,82.90
2019-01-08T13:55:44.223Z,82.90
2019-01-08T13:58:36.503Z,82.80
2019-01-08T14:01:29.630Z,83.00
2019-01-08T14:04:22.739Z,83.10
2019-01-08T14:07:20.519Z,83.20
2019-01-08T14:10:13.250Z,83.30
2019-01-08T14:13:09.868Z,83.30
2019-01-08T14:16:03.328Z,83.20
2019-01-08T14:18:55.442Z,83.20
2019-01-08T14:21:47.581Z,83.20
2019-01-08T14:33:06.470Z,83.40
2019-01-08T15:03:02.243Z,83.10
2019-01-08T15:09:58.694Z,82.60
2019-01-08T15:13:29.426Z,82.30
2019-01-08T15:16:33.214Z,82.30
2019-01-08T15:19:57.140Z,82.20
2019-01-08T15:22:57.841Z,82.00
2019-01-08T15:25:57.808Z,81.90
2019-01-08T15:28:51.355Z,82.00
2019-01-08T15:31:51.570Z,82.00
2019-01-08T15:38:48.510Z,81.70
2019-01-08T15:41:56.094Z,81.80
2019-01-08T15:52:57.586Z,81.70
2019-01-08T16:08:10.589Z,81.20
2019-01-08T16:11:02.318Z,80.90
2019-01-08T16:13:55.065Z,81.00
2019-01-08T16:16:50.380Z,81.00
2019-01-08T16:26:01.170Z,81.10
2019-01-08T16:28:53.802Z,81.10
2019-01-08T16:35:05.295Z,81.10
2019-01-08T16:37:57.026Z,81.00
2019-01-08T16:40:49.591Z,81.00
2019-01-08T16:51:48.361Z,81.20
2019-01-08T17:35:14.202Z,79.90
2019-01-08T17:46:50.659Z,79.70
2019-01-08T17:49:43.713Z,79.70
2019-01-08T17:52:43.227Z,79.70
2019-01-08T18:04:12.342Z,79.50
2019-01-08T19:09:47.261Z,78.00
2019-01-08T19:33:54.665Z,77.50
2019-01-08T20:09:05.196Z,76.70
2019-01-08T21:51:57.199Z,74.00
2019-01-08T22:23:04.387Z,73.60
2019-01-08T22:26:16.456Z,73.00
2019-01-08T22:50:05.632Z,73.40
2019-01-08T23:21:56.680Z,73.30
2019-01-08T23:25:22.083Z,73.00
2019-01-08T23:52:50.453Z,72.70
